sensor_id;sensor_type;location;lat;lon;timestamp;P1;P4;P2;P0;N10;N4;N25;N1;N05;TS
62507;SPS30;48556;51.972;4.624;2023-01-15T00:00:18;6.11;5.79;4.20;2.12;17.27;17.20;16.76;14.51;9.67;0.99
62507;SPS30;48556;51.972;4.624;2023-01-15T00:02:43;6.49;6.15;4.46;2.24;18.28;18.21;17.74;15.35;10.21;0.99
62507;SPS30;48556;51.972;4.624;2023-01-15T00:05:09;7.22;6.83;4.91;2.40;19.59;19.52;18.98;16.27;10.58;1.00
62507;SPS30;48556;51.972;4.624;2023-01-15T00:07:34;7.31;6.93;5.04;2.55;20.81;20.73;20.21;17.53;11.73;0.95
62507;SPS30;48556;51.972;4.624;2023-01-15T00:10:00;6.74;6.40;4.67;2.40;19.60;19.53;19.06;16.61;11.26;0.96
62507;SPS30;48556;51.972;4.624;2023-01-15T00:12:25;6.72;6.37;4.64;2.38;19.37;19.30;18.82;16.38;11.04;0.97
62507;SPS30;48556;51.972;4.624;2023-01-15T00:14:51;6.70;6.35;4.64;2.38;19.41;19.35;18.87;16.44;11.12;0.97
62507;SPS30;48556;51.972;4.624;2023-01-15T00:17:17;6.77;6.42;4.67;2.36;19.26;19.19;18.70;16.22;10.85;0.98
62507;SPS30;48556;51.972;4.624;2023-01-15T00:19:42;7.10;6.74;4.91;2.52;20.51;20.43;19.93;17.34;11.70;0.96
62507;SPS30;48556;51.972;4.624;2023-01-15T00:22:08;7.25;6.87;4.99;2.51;20.50;20.42;19.90;17.23;11.48;0.96
62507;SPS30;48556;51.972;4.624;2023-01-15T00:24:33;6.74;6.39;4.62;2.30;18.80;18.73;18.24;15.74;10.41;0.98
62507;SPS30;48556;51.972;4.624;2023-01-15T00:27:17;7.21;6.83;4.92;2.42;19.77;19.70;19.17;16.47;10.78;1.00
62507;SPS30;48556;51.972;4.624;2023-01-15T00:30:02;6.11;5.79;4.22;2.16;17.61;17.55;17.11;14.89;10.04;0.97
62507;SPS30;48556;51.972;4.624;2023-01-15T00:32:28;6.19;5.87;4.31;2.24;18.25;18.19;17.76;15.54;10.61;0.96
62507;SPS30;48556;51.972;4.624;2023-01-15T00:34:54;5.72;5.43;3.98;2.06;16.81;16.75;16.35;14.29;9.74;0.97
62507;SPS30;48556;51.972;4.624;2023-01-15T00:37:20;6.55;6.22;4.53;2.32;18.90;18.84;18.37;15.98;10.78;0.98
62507;SPS30;48556;51.972;4.624;2023-01-15T00:39:46;5.93;5.62;4.08;2.06;16.82;16.75;16.33;14.15;9.45;0.97
62507;SPS30;48556;51.972;4.624;2023-01-15T00:42:12;7.19;6.80;4.85;2.31;18.90;18.82;18.28;15.53;9.88;1.01
62507;SPS30;48556;51.972;4.624;2023-01-15T00:44:38;6.68;6.32;4.51;2.15;17.61;17.54;17.04;14.49;9.23;1.01
62507;SPS30;48556;51.972;4.624;2023-01-15T00:47:04;7.06;6.68;4.78;2.31;18.85;18.78;18.25;15.57;10.01;1.00
62507;SPS30;48556;51.972;4.624;2023-01-15T00:49:30;6.52;6.17;4.40;2.10;17.18;17.11;16.62;14.13;9.00;1.02
62507;SPS30;48556;51.972;4.624;2023-01-15T00:51:56;6.31;5.97;4.27;2.04;16.69;16.62;16.15;13.74;8.77;1.02
62507;SPS30;48556;51.972;4.624;2023-01-15T00:54:21;6.27;5.94;4.30;2.15;17.57;17.50;17.05;14.73;9.76;1.00
62507;SPS30;48556;51.972;4.624;2023-01-15T00:56:47;6.60;6.26;4.55;2.31;18.84;18.77;18.30;15.88;10.65;0.98
62507;SPS30;48556;51.972;4.624;2023-01-15T00:59:13;6.36;6.03;4.39;2.24;18.24;18.18;17.72;15.40;10.35;0.99
62507;SPS30;48556;51.972;4.624;2023-01-15T01:01:39;6.54;6.20;4.50;2.26;18.45;18.39;17.91;15.50;10.32;1.00
62507;SPS30;48556;51.972;4.624;2023-01-15T01:04:04;6.42;6.08;4.42;2.23;18.17;18.10;17.64;15.28;10.19;0.98
62507;SPS30;48556;51.972;4.624;2023-01-15T01:06:30;6.46;6.13;4.44;2.23;18.23;18.16;17.70;15.31;10.19;0.97
62507;SPS30;48556;51.972;4.624;2023-01-15T01:08:56;6.61;6.27;4.54;2.28;18.63;18.56;18.08;15.64;10.40;0.96
62507;SPS30;48556;51.972;4.624;2023-01-15T01:11:22;6.63;6.29;4.57;2.31;18.88;18.81;18.34;15.91;10.65;0.98
62507;SPS30;48556;51.972;4.624;2023-01-15T01:13:51;6.74;6.38;4.61;2.29;18.69;18.62;18.13;15.62;10.29;1.00
62507;SPS30;48556;51.972;4.624;2023-01-15T01:18:49;7.04;6.67;4.79;2.34;19.09;19.01;18.49;15.84;10.28;1.02
62507;SPS30;48556;51.972;4.624;2023-01-15T01:21:16;6.87;6.50;4.65;2.23;18.22;18.15;17.63;15.02;9.61;1.02
62507;SPS30;48556;51.972;4.624;2023-01-15T01:23:42;6.78;6.42;4.58;2.19;17.94;17.86;17.35;14.77;9.43;1.02
62507;SPS30;48556;51.972;4.624;2023-01-15T01:26:08;6.55;6.20;4.47;2.20;17.94;17.87;17.39;14.94;9.76;1.00
62507;SPS30;48556;51.972;4.624;2023-01-15T01:28:34;7.81;7.38;5.25;2.48;20.29;20.20;19.61;16.61;10.48;1.03
62507;SPS30;48556;51.972;4.624;2023-01-15T01:31:03;7.55;7.13;5.04;2.31;18.93;18.85;18.27;15.31;9.40;1.07
62507;SPS30;48556;51.972;4.624;2023-01-15T01:33:29;7.81;7.37;5.20;2.37;19.47;19.38;18.78;15.71;9.61;1.07
62507;SPS30;48556;51.972;4.624;2023-01-15T01:35:54;6.90;6.52;4.62;2.14;17.54;17.47;16.94;14.25;8.84;1.05
62507;SPS30;48556;51.972;4.624;2023-01-15T01:38:20;7.14;6.75;4.81;2.28;18.66;18.58;18.04;15.30;9.69;1.04
62507;SPS30;48556;51.972;4.624;2023-01-15T01:40:45;7.25;6.85;4.87;2.28;18.66;18.58;18.03;15.23;9.54;1.05
62507;SPS30;48556;51.972;4.624;2023-01-15T01:43:16;6.70;6.33;4.49;2.10;17.18;17.11;16.60;14.00;8.75;1.05
62507;SPS30;48556;51.972;4.624;2023-01-15T01:45:49;7.45;7.04;5.01;2.36;19.33;19.25;18.69;15.82;9.97;1.06
62507;SPS30;48556;51.972;4.624;2023-01-15T01:48:15;6.80;6.44;4.65;2.30;18.82;18.75;18.25;15.72;10.35;1.01
62507;SPS30;48556;51.972;4.624;2023-01-15T01:50:45;6.71;6.35;4.57;2.24;18.29;18.22;17.73;15.21;9.92;1.01
62507;SPS30;48556;51.972;4.624;2023-01-15T01:53:17;6.40;6.06;4.37;2.16;17.64;17.57;17.11;14.72;9.66;1.01
62507;SPS30;48556;51.972;4.624;2023-01-15T01:55:47;6.84;6.47;4.65;2.27;18.56;18.49;17.99;15.41;10.02;1.02
62507;SPS30;48556;51.972;4.624;2023-01-15T01:58:15;6.32;5.98;4.29;2.07;16.96;16.89;16.42;14.03;9.05;1.02
62507;SPS30;48556;51.972;4.624;2023-01-15T02:00:44;6.02;5.70;4.09;1.99;16.26;16.20;15.75;13.48;8.73;1.01
62507;SPS30;48556;51.972;4.624;2023-01-15T02:03:14;6.77;6.41;4.64;2.31;18.87;18.80;18.31;15.80;10.44;0.98
62507;SPS30;48556;51.972;4.624;2023-01-15T02:05:51;6.67;6.32;4.57;2.28;18.62;18.55;18.07;15.59;10.32;0.98
62507;SPS30;48556;51.972;4.624;2023-01-15T02:08:22;6.44;6.10;4.39;2.16;17.67;17.60;17.13;14.72;9.63;1.01
62507;SPS30;48556;51.972;4.624;2023-01-15T02:10:51;6.61;6.26;4.49;2.18;17.84;17.77;17.28;14.79;9.58;1.02
62507;SPS30;48556;51.972;4.624;2023-01-15T02:13:52;6.13;5.81;4.21;2.11;17.19;17.13;16.68;14.42;9.57;1.00
62507;SPS30;48556;51.972;4.624;2023-01-15T02:16:15;5.33;5.06;3.71;1.92;15.68;15.63;15.25;13.34;9.10;0.98
62507;SPS30;48556;51.972;4.624;2023-01-15T02:24:46;6.61;6.27;4.53;2.26;18.41;18.34;17.86;15.41;10.18;1.01
62507;SPS30;48556;51.972;4.624;2023-01-15T02:27:36;5.30;5.03;3.67;1.88;15.35;15.30;14.92;13.00;8.78;0.99
62507;SPS30;48556;51.972;4.624;2023-01-15T02:32:53;6.02;5.70;4.12;2.05;16.72;16.66;16.22;13.98;9.22;1.01
62507;SPS30;48556;51.972;4.624;2023-01-15T02:35:35;5.69;5.39;3.90;1.93;15.79;15.73;15.31;13.19;8.69;1.00
62507;SPS30;48556;51.972;4.624;2023-01-15T02:38:09;6.60;6.25;4.47;2.14;17.52;17.45;16.95;14.44;9.24;1.03
62507;SPS30;48556;51.972;4.624;2023-01-15T02:40:41;6.76;6.39;4.52;2.10;17.20;17.13;16.61;13.98;8.68;1.04
62507;SPS30;48556;51.972;4.624;2023-01-15T02:43:08;7.40;6.99;4.98;2.36;19.28;19.20;18.64;15.80;9.99;1.00
62507;SPS30;48556;51.972;4.624;2023-01-15T02:45:40;6.75;6.38;4.56;2.19;17.88;17.81;17.31;14.74;9.43;1.00
62507;SPS30;48556;51.972;4.624;2023-01-15T02:48:12;6.50;6.16;4.43;2.17;17.76;17.69;17.21;14.77;9.64;1.00
62507;SPS30;48556;51.972;4.624;2023-01-15T02:51:04;7.34;6.95;5.00;2.44;19.96;19.88;19.34;16.57;10.78;1.00
62507;SPS30;48556;51.972;4.624;2023-01-15T02:53:43;7.18;6.79;4.84;2.31;18.89;18.81;18.27;15.53;9.88;1.03
62507;SPS30;48556;51.972;4.624;2023-01-15T02:56:15;6.92;6.54;4.64;2.17;17.75;17.67;17.15;14.47;9.05;1.05
62507;SPS30;48556;51.972;4.624;2023-01-15T02:58:45;7.50;7.09;5.02;2.33;19.08;18.99;18.42;15.50;9.62;1.06
62507;SPS30;48556;51.972;4.624;2023-01-15T03:01:17;7.74;7.31;5.15;2.35;19.26;19.17;18.57;15.53;9.48;1.07
62507;SPS30;48556;51.972;4.624;2023-01-15T03:06:33;6.12;5.80;4.18;2.07;16.88;16.81;16.36;14.08;9.24;0.99
62507;SPS30;48556;51.972;4.624;2023-01-15T03:09:03;5.93;5.62;4.05;2.00;16.30;16.24;15.80;13.58;8.90;1.00
62507;SPS30;48556;51.972;4.624;2023-01-15T03:11:31;6.23;5.90;4.25;2.09;17.09;17.02;16.57;14.23;9.31;1.00
62507;SPS30;48556;51.972;4.624;2023-01-15T03:14:04;6.97;6.59;4.70;2.25;18.37;18.30;17.78;15.11;9.64;1.02
62507;SPS30;48556;51.972;4.624;2023-01-15T03:16:43;5.93;5.62;4.05;2.00;16.30;16.24;15.81;13.59;8.90;1.00
62507;SPS30;48556;51.972;4.624;2023-01-15T03:22:21;5.84;5.53;3.99;1.96;16.03;15.97;15.54;13.35;8.74;1.00
62507;SPS30;48556;51.972;4.624;2023-01-15T03:27:45;6.87;6.50;4.67;2.27;18.58;18.50;18.00;15.40;9.99;0.99
62507;SPS30;48556;51.972;4.624;2023-01-15T03:30:18;6.19;5.85;4.19;2.01;16.46;16.39;15.93;13.57;8.70;1.00
62507;SPS30;48556;51.972;4.624;2023-01-15T03:32:46;7.17;6.79;4.86;2.34;19.11;19.03;18.50;15.77;10.12;0.99
62507;SPS30;48556;51.972;4.624;2023-01-15T03:38:11;6.00;5.68;4.11;2.04;16.65;16.59;16.15;13.92;9.17;0.97
62507;SPS30;48556;51.972;4.624;2023-01-15T03:40:58;6.45;6.11;4.40;2.16;17.66;17.59;17.11;14.69;9.60;0.97
62507;SPS30;48556;51.972;4.624;2023-01-15T03:52:32;6.40;6.05;4.31;2.04;16.66;16.59;16.11;13.65;8.63;1.02
62507;SPS30;48556;51.972;4.624;2023-01-15T03:55:15;6.57;6.21;4.43;2.12;17.31;17.24;16.74;14.23;9.07;1.00
62507;SPS30;48556;51.972;4.624;2023-01-15T03:57:58;5.97;5.65;4.05;1.95;15.98;15.91;15.47;13.20;8.50;1.00
62507;SPS30;48556;51.972;4.624;2023-01-15T04:00:31;5.86;5.54;3.98;1.94;15.82;15.76;15.32;13.11;8.50;0.99
62507;SPS30;48556;51.972;4.624;2023-01-15T04:03:07;5.28;5.00;3.60;1.78;14.50;14.44;14.06;12.08;7.91;0.98
62507;SPS30;48556;51.972;4.624;2023-01-15T04:05:36;6.29;5.96;4.32;2.16;17.61;17.55;17.09;14.76;9.78;0.97
62507;SPS30;48556;51.972;4.624;2023-01-15T04:08:04;5.38;5.10;3.71;1.88;15.31;15.26;14.87;12.89;8.63;0.97
62507;SPS30;48556;51.972;4.624;2023-01-15T04:10:31;5.75;5.44;3.91;1.92;15.68;15.62;15.19;13.04;8.50;1.00
62507;SPS30;48556;51.972;4.624;2023-01-15T04:12:57;5.22;4.95;3.58;1.79;14.61;14.56;14.18;12.25;8.12;0.98
62507;SPS30;48556;51.972;4.624;2023-01-15T04:15:22;5.96;5.65;4.09;2.04;16.69;16.62;16.19;13.98;9.26;0.99
62507;SPS30;48556;51.972;4.624;2023-01-15T04:17:48;6.68;6.32;4.54;2.21;18.10;18.03;17.53;15.02;9.75;1.01
62507;SPS30;48556;51.972;4.624;2023-01-15T04:20:13;5.94;5.63;4.06;2.01;16.41;16.35;15.92;13.70;9.01;0.99
62507;SPS30;48556;51.972;4.624;2023-01-15T04:22:39;5.97;5.66;4.09;2.05;16.70;16.63;16.20;13.99;9.26;0.99
62507;SPS30;48556;51.972;4.624;2023-01-15T04:25:05;6.09;5.77;4.16;2.06;16.82;16.76;16.31;14.04;9.23;1.00
62507;SPS30;48556;51.972;4.624;2023-01-15T04:27:31;7.20;6.82;4.89;2.38;19.44;19.36;18.82;16.11;10.43;1.02
62507;SPS30;48556;51.972;4.624;2023-01-15T04:29:57;7.25;6.85;4.87;2.30;18.79;18.71;18.17;15.37;9.69;1.03
62507;SPS30;48556;51.972;4.624;2023-01-15T04:32:23;7.43;7.02;4.97;2.30;18.85;18.76;18.20;15.30;9.48;1.05
62507;SPS30;48556;51.972;4.624;2023-01-15T04:34:48;6.57;6.20;4.39;2.02;16.59;16.52;16.01;13.45;8.31;1.07
62507;SPS30;48556;51.972;4.624;2023-01-15T04:37:15;6.93;6.56;4.67;2.22;18.16;18.08;17.56;14.90;9.45;1.05
62507;SPS30;48556;51.972;4.624;2023-01-15T04:39:41;6.44;6.11;4.44;2.25;18.38;18.32;17.85;15.49;10.39;0.99
62507;SPS30;48556;51.972;4.624;2023-01-15T04:42:13;5.21;4.95;3.61;1.85;15.11;15.05;14.68;12.79;8.65;0.97
62507;SPS30;48556;51.972;4.624;2023-01-15T04:44:57;4.97;4.72;3.46;1.80;14.66;14.61;14.26;12.48;8.52;0.95
62507;SPS30;48556;51.972;4.624;2023-01-15T04:47:23;5.78;5.48;3.99;2.02;16.47;16.41;16.00;13.88;9.29;0.98
62507;SPS30;48556;51.972;4.624;2023-01-15T04:49:49;4.94;4.69;3.43;1.77;14.41;14.36;14.01;12.22;8.29;0.94
62507;SPS30;48556;51.972;4.624;2023-01-15T04:52:14;5.54;5.26;3.85;1.99;16.24;16.18;15.79;13.79;9.39;0.94
62507;SPS30;48556;51.972;4.624;2023-01-15T04:54:40;4.99;4.74;3.47;1.81;14.74;14.69;14.34;12.55;8.58;0.94
62507;SPS30;48556;51.972;4.624;2023-01-15T04:57:06;5.08;4.81;3.50;1.77;14.40;14.35;13.98;12.12;8.09;0.97
62507;SPS30;48556;51.972;4.624;2023-01-15T04:59:32;5.93;5.62;4.04;1.97;16.09;16.03;15.59;13.36;8.68;1.00
62507;SPS30;48556;51.972;4.624;2023-01-15T05:01:57;5.68;5.38;3.88;1.91;15.60;15.54;15.13;13.00;8.51;0.99
62507;SPS30;48556;51.972;4.624;2023-01-15T05:04:23;5.61;5.32;3.87;1.96;15.97;15.91;15.50;13.45;9.00;0.98
62507;SPS30;48556;51.972;4.624;2023-01-15T05:06:48;4.79;4.55;3.32;1.71;13.94;13.89;13.55;11.81;8.00;0.98
62507;SPS30;48556;51.972;4.624;2023-01-15T05:09:14;5.68;5.38;3.89;1.93;15.74;15.68;15.26;13.15;8.66;1.00
62507;SPS30;48556;51.972;4.624;2023-01-15T05:11:41;5.75;5.43;3.88;1.85;15.15;15.09;14.66;12.46;7.94;1.01
62507;SPS30;48556;51.972;4.624;2023-01-15T05:14:07;4.86;4.60;3.29;1.59;12.98;12.93;12.57;10.72;6.89;0.99
62507;SPS30;48556;51.972;4.624;2023-01-15T05:16:34;4.81;4.56;3.29;1.64;13.36;13.31;12.95;11.16;7.36;0.97
62507;SPS30;48556;51.972;4.624;2023-01-15T05:19:03;4.28;4.05;2.95;1.49;12.16;12.11;11.80;10.23;6.84;0.96
62507;SPS30;48556;51.972;4.624;2023-01-15T05:21:32;4.91;4.66;3.37;1.69;13.81;13.76;13.40;11.58;7.69;0.97
62507;SPS30;48556;51.972;4.624;2023-01-15T05:24:00;5.26;4.99;3.62;1.83;14.94;14.89;14.51;12.58;8.41;0.96
62507;SPS30;48556;51.972;4.624;2023-01-15T05:26:29;5.52;5.23;3.79;1.90;15.49;15.43;15.03;13.00;8.63;0.97
62507;SPS30;48556;51.972;4.624;2023-01-15T05:28:56;5.08;4.82;3.51;1.79;14.56;14.51;14.14;12.29;8.25;0.96
62507;SPS30;48556;51.972;4.624;2023-01-15T05:31:24;5.24;4.96;3.58;1.77;14.45;14.40;14.01;12.06;7.92;0.99
62507;SPS30;48556;51.972;4.624;2023-01-15T05:33:51;5.63;5.33;3.84;1.89;15.46;15.40;14.98;12.88;8.43;1.00
62507;SPS30;48556;51.972;4.624;2023-01-15T05:36:20;6.22;5.89;4.25;2.09;17.11;17.04;16.59;14.26;9.35;1.00
62507;SPS30;48556;51.972;4.624;2023-01-15T05:39:06;5.71;5.42;3.97;2.05;16.73;16.68;16.27;14.21;9.67;0.97
62507;SPS30;48556;51.972;4.624;2023-01-15T05:41:31;6.38;6.05;4.39;2.22;18.10;18.04;17.58;15.24;10.18;0.99
62507;SPS30;48556;51.972;4.624;2023-01-15T05:44:27;5.57;5.28;3.83;1.92;15.69;15.64;15.23;13.18;8.76;0.98
62507;SPS30;48556;51.972;4.624;2023-01-15T05:46:57;5.47;5.18;3.76;1.88;15.37;15.32;14.92;12.90;8.57;0.96
62507;SPS30;48556;51.972;4.624;2023-01-15T05:49:27;5.56;5.26;3.78;1.85;15.12;15.06;14.65;12.56;8.17;0.97
62507;SPS30;48556;51.972;4.624;2023-01-15T05:51:55;5.57;5.27;3.80;1.86;15.21;15.15;14.74;12.65;8.25;0.98
62507;SPS30;48556;51.972;4.624;2023-01-15T05:54:23;5.36;5.07;3.67;1.83;14.90;14.85;14.46;12.47;8.23;0.98
62507;SPS30;48556;51.972;4.624;2023-01-15T05:56:52;5.98;5.66;4.08;2.00;16.34;16.27;15.83;13.59;8.86;0.99
62507;SPS30;48556;51.972;4.624;2023-01-15T05:59:19;5.81;5.50;3.93;1.89;15.42;15.36;14.92;12.71;8.14;1.01
62507;SPS30;48556;51.972;4.624;2023-01-15T06:01:47;5.12;4.85;3.46;1.66;13.56;13.51;13.12;11.17;7.14;1.01
62507;SPS30;48556;51.972;4.624;2023-01-15T06:04:13;5.39;5.10;3.66;1.78;14.52;14.46;14.06;12.03;7.78;0.99
62507;SPS30;48556;51.972;4.624;2023-01-15T06:06:39;5.19;4.91;3.55;1.76;14.38;14.32;13.94;12.01;7.91;0.98
62507;SPS30;48556;51.972;4.624;2023-01-15T06:09:06;5.78;5.47;3.93;1.92;15.66;15.59;15.17;12.99;8.43;1.01
62507;SPS30;48556;51.972;4.624;2023-01-15T06:11:32;5.11;4.83;3.46;1.67;13.69;13.63;13.25;11.32;7.30;1.01
62507;SPS30;48556;51.972;4.624;2023-01-15T06:13:58;5.07;4.80;3.46;1.69;13.84;13.79;13.42;11.51;7.51;1.00
62507;SPS30;48556;51.972;4.624;2023-01-15T06:16:24;5.20;4.93;3.54;1.72;14.08;14.02;13.64;11.68;7.57;1.00
62507;SPS30;48556;51.972;4.624;2023-01-15T06:18:50;4.85;4.59;3.31;1.62;13.26;13.21;12.85;11.03;7.20;1.00
62507;SPS30;48556;51.972;4.624;2023-01-15T06:21:16;4.98;4.72;3.39;1.65;13.51;13.46;13.09;11.22;7.29;1.01
62507;SPS30;48556;51.972;4.624;2023-01-15T06:23:41;4.50;4.27;3.08;1.53;12.52;12.48;12.15;10.47;6.91;1.00
62507;SPS30;48556;51.972;4.624;2023-01-15T06:26:15;5.33;5.05;3.62;1.75;14.30;14.24;13.84;11.82;7.62;1.03
62507;SPS30;48556;51.972;4.624;2023-01-15T06:28:42;4.81;4.54;3.22;1.51;12.34;12.29;11.92;10.06;6.29;1.06
62507;SPS30;48556;51.972;4.624;2023-01-15T06:31:10;6.08;5.74;4.07;1.90;15.56;15.49;15.03;12.67;7.91;1.04
62507;SPS30;48556;51.972;4.624;2023-01-15T06:33:40;5.68;5.37;3.83;1.82;14.90;14.84;14.41;12.24;7.78;1.01
62507;SPS30;48556;51.972;4.624;2023-01-15T06:36:07;5.97;5.65;4.05;1.97;16.07;16.01;15.56;13.31;8.60;0.99
62507;SPS30;48556;51.972;4.624;2023-01-15T06:38:35;4.83;4.57;3.31;1.65;13.44;13.39;13.04;11.25;7.43;0.99
62507;SPS30;48556;51.972;4.624;2023-01-15T06:41:02;5.83;5.53;4.00;1.99;16.28;16.22;15.80;13.64;9.02;0.99
62507;SPS30;48556;51.972;4.624;2023-01-15T06:43:29;5.73;5.43;3.91;1.93;15.76;15.70;15.28;13.14;8.61;1.01
62507;SPS30;48556;51.972;4.624;2023-01-15T06:46:13;6.01;5.69;4.07;1.96;16.03;15.97;15.52;13.23;8.50;1.01
62507;SPS30;48556;51.972;4.624;2023-01-15T06:48:59;5.15;4.87;3.49;1.69;13.83;13.77;13.39;11.44;7.39;1.01
62507;SPS30;48556;51.972;4.624;2023-01-15T06:51:25;4.64;4.39;3.14;1.51;12.31;12.26;11.91;10.14;6.49;1.02
62507;SPS30;48556;51.972;4.624;2023-01-15T06:53:50;4.85;4.58;3.25;1.52;12.47;12.41;12.05;10.17;6.37;1.04
62507;SPS30;48556;51.972;4.624;2023-01-15T06:56:16;5.76;5.44;3.84;1.77;14.54;14.47;14.03;11.78;7.28;1.06
62507;SPS30;48556;51.972;4.624;2023-01-15T06:58:42;5.87;5.55;3.94;1.85;15.16;15.10;14.65;12.39;7.78;1.04
62507;SPS30;48556;51.972;4.624;2023-01-15T07:01:09;5.08;4.81;3.43;1.63;13.30;13.24;12.86;10.91;6.92;1.02
62507;SPS30;48556;51.972;4.624;2023-01-15T07:03:36;5.43;5.14;3.64;1.70;13.93;13.87;13.46;11.35;7.09;1.03
62507;SPS30;48556;51.972;4.624;2023-01-15T07:06:06;5.34;5.05;3.58;1.67;13.66;13.60;13.20;11.12;6.94;1.03
62507;SPS30;48556;51.972;4.624;2023-01-15T07:08:37;6.03;5.70;4.06;1.91;15.67;15.60;15.15;12.82;8.09;1.01
62507;SPS30;48556;51.972;4.624;2023-01-15T07:11:07;5.43;5.14;3.67;1.75;14.32;14.26;13.85;11.78;7.51;1.01
62507;SPS30;48556;51.972;4.624;2023-01-15T07:13:34;5.11;4.83;3.45;1.64;13.41;13.35;12.97;11.01;6.99;1.00
62507;SPS30;48556;51.972;4.624;2023-01-15T07:16:00;4.98;4.71;3.37;1.62;13.21;13.16;12.78;10.88;6.97;1.00
62507;SPS30;48556;51.972;4.624;2023-01-15T07:18:31;5.64;5.34;3.82;1.83;15.00;14.94;14.52;12.37;7.93;1.03
62507;SPS30;48556;51.972;4.624;2023-01-15T07:20:57;5.22;4.93;3.50;1.63;13.35;13.30;12.90;10.88;6.79;1.06
62507;SPS30;48556;51.972;4.624;2023-01-15T07:23:24;5.82;5.50;3.89;1.80;14.71;14.65;14.20;11.94;7.38;1.07
62507;SPS30;48556;51.972;4.624;2023-01-15T07:25:51;5.73;5.41;3.82;1.76;14.41;14.35;13.91;11.67;7.19;1.07
62507;SPS30;48556;51.972;4.624;2023-01-15T07:28:18;6.05;5.71;4.04;1.86;15.24;15.17;14.71;12.35;7.61;1.07
62507;SPS30;48556;51.972;4.624;2023-01-15T07:30:45;5.47;5.17;3.67;1.71;14.02;13.96;13.54;11.42;7.13;1.06
62507;SPS30;48556;51.972;4.624;2023-01-15T07:33:10;5.84;5.52;3.91;1.81;14.86;14.80;14.35;12.08;7.50;1.07
62507;SPS30;48556;51.972;4.624;2023-01-15T07:35:36;6.70;6.33;4.46;2.03;16.64;16.56;16.04;13.40;8.16;1.08
62507;SPS30;48556;51.972;4.624;2023-01-15T07:38:02;6.27;5.92;4.16;1.87;15.32;15.25;14.76;12.28;7.38;1.09
62507;SPS30;48556;51.972;4.624;2023-01-15T07:40:28;6.71;6.33;4.44;1.99;16.34;16.27;15.75;13.08;7.85;1.09
62507;SPS30;48556;51.972;4.624;2023-01-15T07:42:53;5.89;5.55;3.88;1.72;14.13;14.06;13.60;11.25;6.66;1.10
62507;SPS30;48556;51.972;4.624;2023-01-15T07:48:59;5.98;5.64;3.93;1.72;14.10;14.04;13.56;11.15;6.50;1.10
62507;SPS30;48556;51.972;4.624;2023-01-15T07:51:45;7.09;6.68;4.64;2.00;16.43;16.35;15.78;12.91;7.40;1.11
62507;SPS30;48556;51.972;4.624;2023-01-15T07:54:11;6.57;6.19;4.30;1.86;15.31;15.23;14.71;12.05;6.94;1.09
62507;SPS30;48556;51.972;4.624;2023-01-15T07:56:39;7.06;6.66;4.66;2.07;17.00;16.92;16.36;13.55;8.05;1.07
62507;SPS30;48556;51.972;4.624;2023-01-15T07:59:04;6.53;6.15;4.30;1.90;15.60;15.52;15.01;12.40;7.31;1.09
62507;SPS30;48556;51.972;4.624;2023-01-15T08:01:30;6.38;6.02;4.24;1.92;15.74;15.66;15.17;12.65;7.67;1.07
62507;SPS30;48556;51.972;4.624;2023-01-15T08:03:55;6.59;6.22;4.39;2.00;16.43;16.35;15.85;13.26;8.11;1.06
62507;SPS30;48556;51.972;4.624;2023-01-15T08:06:21;7.08;6.68;4.72;2.17;17.75;17.68;17.13;14.36;8.82;1.05
62507;SPS30;48556;51.972;4.624;2023-01-15T08:08:46;6.75;6.38;4.51;2.08;17.05;16.97;16.45;13.82;8.54;1.04
62507;SPS30;48556;51.972;4.624;2023-01-15T08:11:12;6.48;6.11;4.30;1.96;16.04;15.97;15.47;12.92;7.86;1.06
62507;SPS30;48556;51.972;4.624;2023-01-15T08:13:56;7.04;6.64;4.67;2.11;17.31;17.23;16.68;13.90;8.41;1.06
62507;SPS30;48556;51.972;4.624;2023-01-15T08:16:40;6.69;6.31;4.39;1.92;15.75;15.67;15.14;12.45;7.25;1.09
62507;SPS30;48556;51.972;4.624;2023-01-15T08:19:06;7.25;6.83;4.77;2.10;17.28;17.20;16.62;13.72;8.08;1.08
62507;SPS30;48556;51.972;4.624;2023-01-15T08:21:31;6.98;6.59;4.65;2.13;17.49;17.42;16.88;14.14;8.68;1.05
62507;SPS30;48556;51.972;4.624;2023-01-15T08:23:56;6.35;6.00;4.23;1.94;15.89;15.82;15.33;12.84;7.87;1.05
62507;SPS30;48556;51.972;4.624;2023-01-15T08:26:22;5.94;5.62;4.01;1.90;15.58;15.51;15.07;12.79;8.12;1.02
62507;SPS30;48556;51.972;4.624;2023-01-15T08:28:47;6.07;5.74;4.07;1.91;15.62;15.56;15.09;12.75;7.98;1.04
62507;SPS30;48556;51.972;4.624;2023-01-15T08:31:13;6.13;5.79;4.10;1.90;15.55;15.48;15.01;12.62;7.82;1.05
62507;SPS30;48556;51.972;4.624;2023-01-15T08:33:38;6.11;5.77;4.06;1.85;15.19;15.12;14.65;12.25;7.48;1.07
62507;SPS30;48556;51.972;4.624;2023-01-15T08:36:04;6.69;6.31;4.43;1.99;16.31;16.24;15.72;13.06;7.85;1.08
62507;SPS30;48556;51.972;4.624;2023-01-15T08:38:30;6.57;6.21;4.36;1.98;16.21;16.14;15.63;13.04;7.90;1.07
62507;SPS30;48556;51.972;4.624;2023-01-15T08:40:55;6.68;6.31;4.42;1.98;16.28;16.21;15.69;13.04;7.82;1.09
62507;SPS30;48556;51.972;4.624;2023-01-15T08:43:24;7.29;6.88;4.81;2.13;17.49;17.41;16.84;13.92;8.24;1.12
62507;SPS30;48556;51.972;4.624;2023-01-15T08:45:51;6.34;5.98;4.19;1.86;15.29;15.22;14.73;12.20;7.26;1.10
62507;SPS30;48556;51.972;4.624;2023-01-15T08:48:17;6.09;5.75;4.05;1.84;15.10;15.03;14.56;12.16;7.40;1.08
62507;SPS30;48556;51.972;4.624;2023-01-15T08:50:43;6.05;5.71;4.00;1.80;14.76;14.69;14.22;11.82;7.11;1.09
62507;SPS30;48556;51.972;4.624;2023-01-15T08:53:10;6.04;5.70;4.00;1.80;14.73;14.66;14.19;11.80;7.09;1.08
62507;SPS30;48556;51.972;4.624;2023-01-15T08:55:36;5.97;5.64;3.99;1.84;15.05;14.98;14.52;12.19;7.52;1.04
62507;SPS30;48556;51.972;4.624;2023-01-15T08:58:01;6.38;6.02;4.21;1.88;15.39;15.32;14.82;12.28;7.31;1.07
62507;SPS30;48556;51.972;4.624;2023-01-15T09:00:27;6.44;6.07;4.21;1.82;14.96;14.88;14.37;11.76;6.76;1.10
62507;SPS30;48556;51.972;4.624;2023-01-15T09:02:56;6.69;6.30;4.37;1.87;15.40;15.33;14.79;12.07;6.88;1.10
62507;SPS30;48556;51.972;4.624;2023-01-15T09:05:23;6.88;6.48;4.48;1.90;15.61;15.53;14.97;12.16;6.82;1.12
62507;SPS30;48556;51.972;4.624;2023-01-15T09:07:49;7.02;6.61;4.57;1.93;15.86;15.78;15.22;12.34;6.90;1.13
62507;SPS30;48556;51.972;4.624;2023-01-15T09:10:14;6.90;6.50;4.50;1.92;15.76;15.68;15.13;12.32;6.97;1.14
62507;SPS30;48556;51.972;4.624;2023-01-15T09:12:41;6.76;6.37;4.43;1.92;15.75;15.67;15.14;12.40;7.15;1.13
62507;SPS30;48556;51.972;4.624;2023-01-15T09:15:06;7.25;6.83;4.75;2.07;16.98;16.89;16.32;13.39;7.75;1.12
62507;SPS30;48556;51.972;4.624;2023-01-15T09:17:32;6.38;6.01;4.19;1.84;15.09;15.02;14.51;11.95;6.99;1.11
62507;SPS30;48556;51.972;4.624;2023-01-15T09:19:58;6.29;5.94;4.15;1.84;15.14;15.07;14.58;12.07;7.16;1.09
62507;SPS30;48556;51.972;4.624;2023-01-15T09:22:24;6.68;6.30;4.40;1.95;16.02;15.94;15.42;12.75;7.55;1.09
62507;SPS30;48556;51.972;4.624;2023-01-15T09:24:57;6.84;6.45;4.50;1.98;16.26;16.18;15.64;12.89;7.57;1.10
62507;SPS30;48556;51.972;4.624;2023-01-15T09:27:23;7.96;7.49;5.17;2.17;17.86;17.77;17.12;13.85;7.69;1.16
62507;SPS30;48556;51.972;4.624;2023-01-15T09:29:49;6.68;6.29;4.33;1.80;14.81;14.73;14.19;11.43;6.26;1.17
62507;SPS30;48556;51.972;4.624;2023-01-15T09:32:14;6.55;6.17;4.27;1.82;15.00;14.93;14.40;11.73;6.65;1.14
62507;SPS30;48556;51.972;4.624;2023-01-15T09:34:40;6.03;5.69;3.96;1.74;14.28;14.21;13.73;11.31;6.61;1.11
62507;SPS30;48556;51.972;4.624;2023-01-15T09:37:05;5.37;5.07;3.54;1.57;12.91;12.85;12.42;10.28;6.10;1.10
62507;SPS30;48556;51.972;4.624;2023-01-15T09:39:31;5.35;5.05;3.55;1.60;13.16;13.10;12.69;10.57;6.40;1.09
62507;SPS30;48556;51.972;4.624;2023-01-15T09:55:45;6.12;5.79;4.12;1.94;15.87;15.81;15.34;12.98;8.18;1.02
62507;SPS30;48556;51.972;4.624;2023-01-15T09:58:14;6.39;6.04;4.28;2.00;16.35;16.28;15.79;13.31;8.31;1.02
62507;SPS30;48556;51.972;4.624;2023-01-15T10:00:47;6.29;5.95;4.21;1.96;16.03;15.96;15.48;13.03;8.10;1.04
62507;SPS30;48556;51.972;4.624;2023-01-15T10:06:03;6.98;6.59;4.59;2.02;16.56;16.49;15.93;13.13;7.69;1.09
62507;SPS30;48556;51.972;4.624;2023-01-15T10:08:35;7.23;6.82;4.77;2.11;17.36;17.27;16.71;13.81;8.18;1.08
62507;SPS30;48556;51.972;4.624;2023-01-15T10:13:48;7.66;7.23;5.08;2.30;18.85;18.76;18.17;15.14;9.16;1.06
62507;SPS30;48556;51.972;4.624;2023-01-15T10:16:35;7.40;7.00;5.01;2.42;19.78;19.70;19.14;16.34;10.51;1.01